createdAt,value
2019-04-03T00:01:13.969Z,95879.84
2019-04-03T00:06:08.604Z,95877.73
2019-04-03T00:11:03.214Z,95878.78
2019-04-03T00:15:57.791Z,95879.83
2019-04-03T00:20:52.387Z,95878.24
2019-04-03T00:25:46.982Z,95874.05
2019-04-03T00:30:41.601Z,95865.87
2019-04-03T00:35:36.184Z,95863.52
2019-04-03T00:40:30.788Z,95865.61
2019-04-03T00:45:25.435Z,95860.08
2019-04-03T00:50:20.103Z,95859.27
2019-04-03T00:55:14.704Z,95857.95
2019-04-03T01:00:13.967Z,95852.95
2019-04-03T01:05:08.637Z,95845.05
2019-04-03T01:10:03.261Z,95841.34
2019-04-03T01:14:57.832Z,95832.64
2019-04-03T01:19:52.439Z,95831.58
2019-04-03T01:24:47.108Z,95831.00
2019-04-03T01:29:42.951Z,95824.69
2019-04-03T01:34:37.771Z,95819.43
2019-04-03T01:39:32.403Z,95819.94
2019-04-03T01:44:26.991Z,95813.08
2019-04-03T01:49:21.744Z,95814.39
2019-04-03T01:54:16.279Z,95815.44
2019-04-03T01:59:10.954Z,95810.17
2019-04-03T02:04:05.805Z,95804.89
2019-04-03T02:09:00.517Z,95803.54
2019-04-03T02:13:55.095Z,95806.70
2019-04-03T02:18:49.802Z,95802.48
2019-04-03T02:23:44.394Z,95802.00
2019-04-03T02:28:39.002Z,95795.91
2019-04-03T02:33:33.953Z,95783.25
2019-04-03T02:38:28.825Z,95767.72
2019-04-03T02:43:23.427Z,95764.26
2019-04-03T02:48:18.225Z,95765.56
2019-04-03T02:53:13.640Z,95775.26
2019-04-03T02:58:08.388Z,95773.67
2019-04-03T03:03:02.969Z,95778.13
2019-04-03T03:07:58.456Z,95776.91
2019-04-03T03:12:53.402Z,95777.70
2019-04-03T03:17:49.259Z,95781.89
2019-04-03T03:22:44.487Z,95778.23
2019-04-03T03:27:41.891Z,95772.92
2019-04-03T03:32:37.547Z,95773.18
2019-04-03T03:37:35.276Z,95765.78
2019-04-03T03:42:32.398Z,95765.48
2019-04-03T03:47:27.646Z,95763.13
2019-04-03T03:52:23.713Z,95756.81
2019-04-03T03:57:19.037Z,95749.15
2019-04-03T04:02:13.912Z,95759.08
2019-04-03T04:07:08.660Z,95747.20
2019-04-03T04:12:05.984Z,95749.43
2019-04-03T04:17:00.449Z,95741.37
2019-04-03T04:21:55.586Z,95743.62
2019-04-03T04:26:50.646Z,95733.66
2019-04-03T04:31:45.282Z,95731.89
2019-04-03T04:36:39.943Z,95737.98
2019-04-03T04:41:34.601Z,95731.05
2019-04-03T04:46:29.177Z,95724.87
2019-04-03T04:51:25.701Z,95729.69
2019-04-03T04:56:20.108Z,95727.75
2019-04-03T05:01:17.012Z,95725.13
2019-04-03T05:06:11.221Z,95722.66
2019-04-03T05:11:07.552Z,95720.18
2019-04-03T05:16:02.149Z,95725.16
2019-04-03T05:20:56.733Z,95723.88
2019-04-03T05:25:51.328Z,95717.17
2019-04-03T05:30:45.987Z,95721.52
2019-04-03T05:35:40.583Z,95731.45
2019-04-03T05:40:35.189Z,95722.84
2019-04-03T05:45:30.217Z,95718.31
2019-04-03T05:50:26.470Z,95712.75
2019-04-03T05:55:21.248Z,95710.75
2019-04-03T06:00:16.628Z,95703.10
2019-04-03T06:05:12.868Z,95704.18
2019-04-03T06:10:08.704Z,95696.80
2019-04-03T06:15:10.255Z,95697.08
2019-04-03T06:20:11.263Z,95684.92
2019-04-03T06:25:06.934Z,95689.83
2019-04-03T06:30:02.034Z,95679.64
2019-04-03T06:34:56.863Z,95677.59
2019-04-03T06:39:51.626Z,95667.84
2019-04-03T06:44:46.352Z,95664.50
2019-04-03T06:49:41.163Z,95658.47
2019-04-03T06:54:35.722Z,95658.56
2019-04-03T06:59:30.525Z,95652.28
2019-04-03T07:04:25.115Z,95659.48
2019-04-03T07:09:23.998Z,95655.08
2019-04-03T07:14:16.286Z,95648.19
2019-04-03T07:19:11.288Z,95649.02
2019-04-03T07:24:06.507Z,95647.52
2019-04-03T07:29:01.414Z,95646.87
2019-04-03T07:33:58.188Z,95647.44
2019-04-03T07:38:58.012Z,95651.38
2019-04-03T07:43:52.528Z,95646.33
2019-04-03T07:48:47.783Z,95639.83
2019-04-03T07:53:42.399Z,95629.09
2019-04-03T07:58:36.975Z,95634.86
2019-04-03T08:03:33.636Z,95638.83
2019-04-03T08:08:33.683Z,95642.39
2019-04-03T08:13:31.219Z,95631.94
2019-04-03T08:18:31.155Z,95634.03
2019-04-03T08:23:31.963Z,95627.51
2019-04-03T08:28:31.630Z,95625.33
2019-04-03T08:33:32.795Z,95625.56
2019-04-03T08:38:32.924Z,95614.84
2019-04-03T08:43:33.388Z,95608.86
2019-04-03T08:48:32.856Z,95610.06
2019-04-03T08:53:32.533Z,95606.79
2019-04-03T08:58:32.572Z,95602.11
2019-04-03T09:03:33.084Z,95597.77
2019-04-03T09:08:30.442Z,95583.69
2019-04-03T09:13:30.730Z,95569.47
2019-04-03T09:18:37.471Z,95553.48
2019-04-03T09:23:35.562Z,95542.79
2019-04-03T09:28:32.288Z,95531.48
2019-04-03T09:33:30.376Z,95519.37
2019-04-03T09:38:30.888Z,95519.11
2019-04-03T09:43:28.878Z,95508.16
2019-04-03T09:48:28.796Z,95494.63
2019-04-03T09:53:28.282Z,95479.97
2019-04-03T09:58:26.399Z,95476.67
2019-04-03T10:03:24.942Z,95469.23
2019-04-03T10:08:25.595Z,95460.02
2019-04-03T10:13:26.291Z,95450.77
2019-04-03T10:18:26.465Z,95434.63
2019-04-03T10:23:29.106Z,95438.58
2019-04-03T10:28:29.837Z,95428.66
2019-04-03T10:33:31.558Z,95414.84
2019-04-03T10:38:31.936Z,95393.59
2019-04-03T10:43:36.640Z,95381.36
2019-04-03T10:48:40.129Z,95364.81
2019-04-03T10:53:38.722Z,95356.86
2019-04-03T10:58:41.888Z,95335.30
2019-04-03T11:03:41.804Z,95332.58
2019-04-03T11:08:40.115Z,95327.65
2019-04-03T11:13:42.982Z,95324.58
2019-04-03T11:18:40.922Z,95312.16
2019-04-03T11:23:45.982Z,95303.42
2019-04-03T11:28:43.754Z,95290.05
2019-04-03T11:33:45.935Z,95280.56
2019-04-03T11:38:51.490Z,95275.25
2019-04-03T11:43:50.555Z,95257.70
2019-04-03T11:48:56.534Z,95237.84
2019-04-03T11:54:06.779Z,95234.58
2019-04-03T11:59:09.560Z,95220.66
2019-04-03T12:04:12.781Z,95225.81
2019-04-03T12:09:16.226Z,95218.05
2019-04-03T12:14:21.710Z,95212.77
2019-04-03T12:19:24.698Z,95202.70
2019-04-03T12:24:26.309Z,95191.69
2019-04-03T12:29:28.843Z,95188.58
2019-04-03T12:34:36.658Z,95173.88
2019-04-03T12:39:34.360Z,95170.83
2019-04-03T12:44:33.448Z,95153.02
2019-04-03T12:49:36.880Z,95136.91
2019-04-03T12:54:41.296Z,95124.24
2019-04-03T12:59:48.828Z,95110.80
2019-04-03T13:04:50.156Z,95094.36
2019-04-03T13:09:51.313Z,95080.59
2019-04-03T13:14:56.133Z,95075.00
2019-04-03T13:20:06.801Z,95065.34
2019-04-03T13:25:06.350Z,95053.98
2019-04-03T13:30:11.950Z,95045.17
2019-04-03T13:35:16.570Z,95043.19
2019-04-03T13:40:23.458Z,95036.31
2019-04-03T13:45:30.671Z,95023.66
2019-04-03T13:50:30.923Z,95010.27
2019-04-03T13:55:37.658Z,95002.31
2019-04-03T14:00:40.748Z,94996.73
2019-04-03T14:05:46.186Z,94980.16
2019-04-03T14:10:48.530Z,94992.09
2019-04-03T14:15:50.902Z,94992.53
2019-04-03T14:20:52.054Z,94977.59
2019-04-03T14:26:04.395Z,94977.22
2019-04-03T14:30:56.942Z,94969.28
2019-04-03T14:35:55.711Z,94970.54
2019-04-03T14:41:00.409Z,94965.43
2019-04-03T14:46:02.769Z,94963.61
2019-04-03T14:51:07.708Z,94956.75
2019-04-03T14:56:07.126Z,94972.59
2019-04-03T15:01:06.558Z,94967.19
2019-04-03T15:06:06.817Z,94976.98
2019-04-03T15:11:05.589Z,94982.95
2019-04-03T15:16:04.550Z,94976.52
2019-04-03T15:21:06.053Z,94981.91
2019-04-03T15:26:06.302Z,94970.80
2019-04-03T15:31:05.940Z,94980.89
2019-04-03T15:36:05.727Z,95014.86
2019-04-03T15:41:02.775Z,95042.09
2019-04-03T15:46:05.326Z,95081.02
2019-04-03T15:51:05.585Z,95125.21
2019-04-03T15:56:03.955Z,95157.14
2019-04-03T16:01:08.316Z,95201.94
2019-04-03T16:06:07.652Z,95207.86
2019-04-03T16:11:08.488Z,95214.69
2019-04-03T16:16:07.477Z,95245.23
2019-04-03T16:21:07.547Z,95239.02
2019-04-03T16:26:02.334Z,95259.86
2019-04-03T16:30:57.024Z,95258.30
2019-04-03T16:35:51.686Z,95277.19
2019-04-03T16:40:46.947Z,95286.60
2019-04-03T16:45:42.408Z,95285.52
2019-04-03T16:50:37.350Z,95301.25
2019-04-03T16:55:31.976Z,95309.59
2019-04-03T17:00:27.495Z,95323.66
2019-04-03T17:05:22.332Z,95351.42
2019-04-03T17:10:17.230Z,95349.28
2019-04-03T17:15:12.446Z,95365.04
2019-04-03T17:20:10.254Z,95369.28
2019-04-03T17:25:07.965Z,95375.97
2019-04-03T17:30:03.098Z,95389.39
2019-04-03T17:34:57.837Z,95381.31
2019-04-03T17:39:52.556Z,95379.20
2019-04-03T17:44:47.266Z,95386.05
2019-04-03T17:49:41.824Z,95393.10
2019-04-03T17:54:38.258Z,95386.20
2019-04-03T17:59:32.708Z,95381.31
2019-04-03T18:04:27.308Z,95398.02
2019-04-03T18:09:22.123Z,95404.35
2019-04-03T18:14:16.760Z,95421.38
2019-04-03T18:19:11.351Z,95408.17
2019-04-03T18:24:06.183Z,95409.48
2019-04-03T18:29:00.771Z,95415.79
2019-04-03T18:33:55.339Z,95423.13
2019-04-03T18:38:49.912Z,95432.27
2019-04-03T18:43:44.511Z,95432.30
2019-04-03T18:48:39.096Z,95452.39
2019-04-03T18:53:33.685Z,95449.56
2019-04-03T18:58:28.243Z,95451.84
2019-04-03T19:03:22.831Z,95461.04
2019-04-03T19:08:18.230Z,95462.16
2019-04-03T19:13:13.982Z,95462.22
2019-04-03T19:18:19.287Z,95470.58
2019-04-03T19:23:07.080Z,95473.78
2019-04-03T19:28:04.010Z,95471.83
2019-04-03T19:32:58.562Z,95478.63
2019-04-03T19:37:53.186Z,95490.25
2019-04-03T19:42:48.965Z,95478.16
2019-04-03T19:47:43.733Z,95474.47
2019-04-03T19:52:41.596Z,95480.83
2019-04-03T19:57:34.686Z,95478.55
2019-04-03T20:02:30.256Z,95472.55
2019-04-03T20:07:26.769Z,95490.05
2019-04-03T20:12:21.229Z,95487.99
2019-04-03T20:17:22.795Z,95479.28
2019-04-03T20:22:22.250Z,95478.58
2019-04-03T20:27:22.496Z,95477.83
2019-04-03T20:32:23.041Z,95473.08
2019-04-03T20:37:22.289Z,95465.34
2019-04-03T20:42:22.019Z,95476.46
2019-04-03T20:47:19.449Z,95484.61
2019-04-03T20:52:16.470Z,95480.87
2019-04-03T20:57:16.182Z,95486.50
2019-04-03T21:02:15.030Z,95477.48
2019-04-03T21:07:12.718Z,95475.41
2019-04-03T21:12:07.286Z,95479.42
2019-04-03T21:17:01.859Z,95478.86
2019-04-03T21:21:57.730Z,95493.81
2019-04-03T21:26:52.764Z,95474.17
2019-04-03T21:31:47.350Z,95466.77
2019-04-03T21:36:41.916Z,95463.45
2019-04-03T21:41:36.590Z,95461.83
2019-04-03T21:46:31.211Z,95459.25
2019-04-03T21:51:25.825Z,95454.24
2019-04-03T21:56:20.391Z,95462.14
2019-04-03T22:01:22.259Z,95458.69
2019-04-03T22:06:16.918Z,95454.39
2019-04-03T22:11:11.650Z,95450.92
2019-04-03T22:16:06.447Z,95455.68
2019-04-03T22:21:01.861Z,95446.02
2019-04-03T22:25:57.393Z,95444.89
2019-04-03T22:30:52.531Z,95441.90
2019-04-03T22:35:47.440Z,95422.77
2019-04-03T22:40:42.035Z,95418.85
2019-04-03T22:45:36.610Z,95402.45
2019-04-03T22:50:33.479Z,95391.00
2019-04-03T22:55:28.670Z,95386.81
2019-04-03T23:00:25.500Z,95374.61
2019-04-03T23:05:19.604Z,95375.73
2019-04-03T23:10:14.257Z,95383.03
2019-04-03T23:15:09.683Z,95379.12
2019-04-03T23:20:05.306Z,95371.38
2019-04-03T23:25:00.150Z,95359.36
2019-04-03T23:29:54.946Z,95353.79
2019-04-03T23:34:50.094Z,95345.69
2019-04-03T23:39:44.801Z,95349.35
2019-04-03T23:44:41.886Z,95339.84
2019-04-03T23:49:35.717Z,95324.44
2019-04-03T23:54:30.299Z,95318.73
2019-04-03T23:59:26.724Z,95305.64
